sensor_id;sensor_type;location;lat;lon;timestamp;temperature;humidity
30520;DHT22;17300;50.374;8.006;2023-04-01T00:01:23;15.70;51.80
30520;DHT22;17300;50.374;8.006;2023-04-01T00:03:50;15.70;51.70
30520;DHT22;17300;50.374;8.006;2023-04-01T00:06:18;15.70;51.70
30520;DHT22;17300;50.374;8.006;2023-04-01T00:08:45;15.70;51.60
30520;DHT22;17300;50.374;8.006;2023-04-01T00:11:12;15.70;51.60
30520;DHT22;17300;50.374;8.006;2023-04-01T00:13:39;15.70;51.60
30520;DHT22;17300;50.374;8.006;2023-04-01T00:16:06;15.60;51.50
30520;DHT22;17300;50.374;8.006;2023-04-01T00:18:34;15.60;51.50
30520;DHT22;17300;50.374;8.006;2023-04-01T00:21:00;15.60;52.20
30520;DHT22;17300;50.374;8.006;2023-04-01T00:23:27;15.60;51.60
30520;DHT22;17300;50.374;8.006;2023-04-01T00:25:54;15.60;51.60
30520;DHT22;17300;50.374;8.006;2023-04-01T00:28:21;15.60;51.60
30520;DHT22;17300;50.374;8.006;2023-04-01T00:30:47;15.60;51.60
30520;DHT22;17300;50.374;8.006;2023-04-01T00:33:14;15.60;51.60
30520;DHT22;17300;50.374;8.006;2023-04-01T00:35:43;15.60;51.60
30520;DHT22;17300;50.374;8.006;2023-04-01T00:38:10;15.60;51.60
30520;DHT22;17300;50.374;8.006;2023-04-01T00:40:38;15.60;51.60
30520;DHT22;17300;50.374;8.006;2023-04-01T00:43:11;15.50;51.50
30520;DHT22;17300;50.374;8.006;2023-04-01T00:45:39;15.50;51.50
30520;DHT22;17300;50.374;8.006;2023-04-01T00:48:10;15.50;51.50
30520;DHT22;17300;50.374;8.006;2023-04-01T00:50:39;15.50;51.50
30520;DHT22;17300;50.374;8.006;2023-04-01T00:53:08;15.50;51.50
30520;DHT22;17300;50.374;8.006;2023-04-01T00:55:39;15.50;51.50
30520;DHT22;17300;50.374;8.006;2023-04-01T00:58:10;15.50;51.50
30520;DHT22;17300;50.374;8.006;2023-04-01T01:00:40;15.50;51.60
30520;DHT22;17300;50.374;8.006;2023-04-01T01:03:07;15.50;51.50
30520;DHT22;17300;50.374;8.006;2023-04-01T01:05:44;15.50;51.50
30520;DHT22;17300;50.374;8.006;2023-04-01T01:08:21;15.50;51.50
30520;DHT22;17300;50.374;8.006;2023-04-01T01:10:52;15.50;52.10
30520;DHT22;17300;50.374;8.006;2023-04-01T01:13:25;15.50;51.50
30520;DHT22;17300;50.374;8.006;2023-04-01T01:15:56;15.50;51.40
30520;DHT22;17300;50.374;8.006;2023-04-01T01:18:31;15.50;51.50
30520;DHT22;17300;50.374;8.006;2023-04-01T01:21:40;15.50;51.50
30520;DHT22;17300;50.374;8.006;2023-04-01T01:24:22;15.50;51.50
30520;DHT22;17300;50.374;8.006;2023-04-01T01:26:58;15.40;51.40
30520;DHT22;17300;50.374;8.006;2023-04-01T01:29:42;15.40;51.40
30520;DHT22;17300;50.374;8.006;2023-04-01T01:32:17;15.40;51.30
30520;DHT22;17300;50.374;8.006;2023-04-01T01:34:51;15.40;51.40
30520;DHT22;17300;50.374;8.006;2023-04-01T01:37:24;15.40;51.40
30520;DHT22;17300;50.374;8.006;2023-04-01T01:39:55;15.40;51.40
30520;DHT22;17300;50.374;8.006;2023-04-01T01:42:24;15.40;51.40
30520;DHT22;17300;50.374;8.006;2023-04-01T01:44:52;15.40;51.40
30520;DHT22;17300;50.374;8.006;2023-04-01T01:47:21;15.40;51.40
30520;DHT22;17300;50.374;8.006;2023-04-01T01:49:49;15.40;51.40
30520;DHT22;17300;50.374;8.006;2023-04-01T01:52:17;15.40;51.40
30520;DHT22;17300;50.374;8.006;2023-04-01T01:54:49;15.40;51.40
30520;DHT22;17300;50.374;8.006;2023-04-01T01:57:17;15.40;51.50
30520;DHT22;17300;50.374;8.006;2023-04-01T01:59:47;15.40;51.50
30520;DHT22;17300;50.374;8.006;2023-04-01T02:02:15;15.40;51.40
30520;DHT22;17300;50.374;8.006;2023-04-01T02:04:45;15.40;51.40
30520;DHT22;17300;50.374;8.006;2023-04-01T02:07:15;15.30;51.30
30520;DHT22;17300;50.374;8.006;2023-04-01T02:09:43;15.30;51.30
30520;DHT22;17300;50.374;8.006;2023-04-01T02:12:13;15.30;51.30
30520;DHT22;17300;50.374;8.006;2023-04-01T02:14:43;15.30;51.30
30520;DHT22;17300;50.374;8.006;2023-04-01T02:17:14;15.30;51.20
30520;DHT22;17300;50.374;8.006;2023-04-01T02:19:47;15.30;51.30
30520;DHT22;17300;50.374;8.006;2023-04-01T02:22:18;15.30;51.20
30520;DHT22;17300;50.374;8.006;2023-04-01T02:24:45;15.30;51.20
30520;DHT22;17300;50.374;8.006;2023-04-01T02:27:14;15.30;51.20
30520;DHT22;17300;50.374;8.006;2023-04-01T02:29:41;15.30;51.20
30520;DHT22;17300;50.374;8.006;2023-04-01T02:32:09;15.30;51.20
30520;DHT22;17300;50.374;8.006;2023-04-01T02:34:36;15.30;51.20
30520;DHT22;17300;50.374;8.006;2023-04-01T02:37:03;15.30;51.20
30520;DHT22;17300;50.374;8.006;2023-04-01T02:39:30;15.30;51.10
30520;DHT22;17300;50.374;8.006;2023-04-01T02:41:56;15.30;51.10
30520;DHT22;17300;50.374;8.006;2023-04-01T02:44:25;15.30;51.10
30520;DHT22;17300;50.374;8.006;2023-04-01T02:46:51;15.30;51.10
30520;DHT22;17300;50.374;8.006;2023-04-01T02:49:18;15.30;51.00
30520;DHT22;17300;50.374;8.006;2023-04-01T02:51:45;15.30;51.10
30520;DHT22;17300;50.374;8.006;2023-04-01T02:54:11;15.30;51.00
30520;DHT22;17300;50.374;8.006;2023-04-01T02:56:38;15.30;51.00
30520;DHT22;17300;50.374;8.006;2023-04-01T02:59:05;15.30;51.00
30520;DHT22;17300;50.374;8.006;2023-04-01T03:01:33;15.30;51.00
30520;DHT22;17300;50.374;8.006;2023-04-01T03:03:59;15.30;51.00
30520;DHT22;17300;50.374;8.006;2023-04-01T03:06:26;15.30;51.00
30520;DHT22;17300;50.374;8.006;2023-04-01T03:08:53;15.30;51.10
30520;DHT22;17300;50.374;8.006;2023-04-01T03:11:20;15.30;51.00
30520;DHT22;17300;50.374;8.006;2023-04-01T03:13:47;15.30;51.10
30520;DHT22;17300;50.374;8.006;2023-04-01T03:16:14;15.20;51.00
30520;DHT22;17300;50.374;8.006;2023-04-01T03:18:42;15.30;51.10
30520;DHT22;17300;50.374;8.006;2023-04-01T03:21:13;15.20;50.90
30520;DHT22;17300;50.374;8.006;2023-04-01T03:23:40;15.20;50.90
30520;DHT22;17300;50.374;8.006;2023-04-01T03:26:07;15.20;51.00
30520;DHT22;17300;50.374;8.006;2023-04-01T03:28:34;15.20;51.00
30520;DHT22;17300;50.374;8.006;2023-04-01T03:31:00;15.20;51.00
30520;DHT22;17300;50.374;8.006;2023-04-01T03:33:27;15.20;51.00
30520;DHT22;17300;50.374;8.006;2023-04-01T03:35:55;15.20;51.00
30520;DHT22;17300;50.374;8.006;2023-04-01T03:38:22;15.20;51.00
30520;DHT22;17300;50.374;8.006;2023-04-01T03:40:48;15.20;51.00
30520;DHT22;17300;50.374;8.006;2023-04-01T03:43:15;15.20;51.00
30520;DHT22;17300;50.374;8.006;2023-04-01T03:45:46;15.20;51.00
30520;DHT22;17300;50.374;8.006;2023-04-01T03:48:13;15.20;51.00
30520;DHT22;17300;50.374;8.006;2023-04-01T03:50:40;15.20;51.00
30520;DHT22;17300;50.374;8.006;2023-04-01T03:53:09;15.20;51.00
30520;DHT22;17300;50.374;8.006;2023-04-01T03:55:36;15.20;51.00
30520;DHT22;17300;50.374;8.006;2023-04-01T03:58:05;15.20;51.10
30520;DHT22;17300;50.374;8.006;2023-04-01T04:00:32;15.20;51.10
30520;DHT22;17300;50.374;8.006;2023-04-01T04:02:59;15.20;51.00
30520;DHT22;17300;50.374;8.006;2023-04-01T04:05:26;15.20;51.00
30520;DHT22;17300;50.374;8.006;2023-04-01T04:07:53;15.20;51.10
30520;DHT22;17300;50.374;8.006;2023-04-01T04:10:21;15.20;51.10
30520;DHT22;17300;50.374;8.006;2023-04-01T04:12:50;15.20;51.10
30520;DHT22;17300;50.374;8.006;2023-04-01T04:15:17;15.20;51.10
30520;DHT22;17300;50.374;8.006;2023-04-01T04:17:44;15.10;51.10
30520;DHT22;17300;50.374;8.006;2023-04-01T04:20:12;15.10;51.10
30520;DHT22;17300;50.374;8.006;2023-04-01T04:22:39;15.10;51.20
30520;DHT22;17300;50.374;8.006;2023-04-01T04:25:06;15.00;51.10
30520;DHT22;17300;50.374;8.006;2023-04-01T04:27:34;15.00;51.30
30520;DHT22;17300;50.374;8.006;2023-04-01T04:30:01;14.90;51.20
30520;DHT22;17300;50.374;8.006;2023-04-01T04:32:28;14.90;51.30
30520;DHT22;17300;50.374;8.006;2023-04-01T04:34:55;14.80;51.30
30520;DHT22;17300;50.374;8.006;2023-04-01T04:37:21;14.80;51.00
30520;DHT22;17300;50.374;8.006;2023-04-01T04:39:48;14.70;51.50
30520;DHT22;17300;50.374;8.006;2023-04-01T04:42:15;14.70;51.60
30520;DHT22;17300;50.374;8.006;2023-04-01T04:44:43;14.60;51.90
30520;DHT22;17300;50.374;8.006;2023-04-01T04:47:09;14.60;52.50
30520;DHT22;17300;50.374;8.006;2023-04-01T04:49:36;14.50;51.80
30520;DHT22;17300;50.374;8.006;2023-04-01T04:52:03;14.40;51.80
30520;DHT22;17300;50.374;8.006;2023-04-01T04:54:29;14.40;52.00
30520;DHT22;17300;50.374;8.006;2023-04-01T04:56:56;14.30;52.00
30520;DHT22;17300;50.374;8.006;2023-04-01T04:59:22;14.30;52.10
30520;DHT22;17300;50.374;8.006;2023-04-01T05:01:50;14.30;52.20
30520;DHT22;17300;50.374;8.006;2023-04-01T05:04:17;14.20;52.30
30520;DHT22;17300;50.374;8.006;2023-04-01T05:06:44;14.20;52.50
30520;DHT22;17300;50.374;8.006;2023-04-01T05:09:11;14.20;52.50
30520;DHT22;17300;50.374;8.006;2023-04-01T05:11:37;14.20;52.60
30520;DHT22;17300;50.374;8.006;2023-04-01T05:14:04;14.10;52.60
30520;DHT22;17300;50.374;8.006;2023-04-01T05:16:30;14.20;52.80
30520;DHT22;17300;50.374;8.006;2023-04-01T05:18:59;14.20;52.80
30520;DHT22;17300;50.374;8.006;2023-04-01T05:21:25;14.20;52.80
30520;DHT22;17300;50.374;8.006;2023-04-01T05:23:52;14.20;53.50
30520;DHT22;17300;50.374;8.006;2023-04-01T05:26:19;14.20;52.80
30520;DHT22;17300;50.374;8.006;2023-04-01T05:28:45;14.20;52.90
30520;DHT22;17300;50.374;8.006;2023-04-01T05:31:12;14.20;52.80
30520;DHT22;17300;50.374;8.006;2023-04-01T05:33:39;14.20;52.90
30520;DHT22;17300;50.374;8.006;2023-04-01T05:36:09;14.30;52.90
30520;DHT22;17300;50.374;8.006;2023-04-01T05:38:36;14.20;52.90
30520;DHT22;17300;50.374;8.006;2023-04-01T05:41:03;14.20;52.80
30520;DHT22;17300;50.374;8.006;2023-04-01T05:43:30;14.30;52.90
30520;DHT22;17300;50.374;8.006;2023-04-01T05:45:56;14.30;53.00
30520;DHT22;17300;50.374;8.006;2023-04-01T05:48:23;14.30;53.00
30520;DHT22;17300;50.374;8.006;2023-04-01T05:50:50;14.30;53.00
30520;DHT22;17300;50.374;8.006;2023-04-01T05:53:18;14.30;53.10
30520;DHT22;17300;50.374;8.006;2023-04-01T05:55:44;14.30;53.20
30520;DHT22;17300;50.374;8.006;2023-04-01T05:58:11;14.30;53.10
30520;DHT22;17300;50.374;8.006;2023-04-01T06:00:38;14.30;53.10
30520;DHT22;17300;50.374;8.006;2023-04-01T06:03:05;14.30;53.20
30520;DHT22;17300;50.374;8.006;2023-04-01T06:05:39;14.30;53.20
30520;DHT22;17300;50.374;8.006;2023-04-01T06:08:10;14.30;53.40
30520;DHT22;17300;50.374;8.006;2023-04-01T06:10:48;14.30;53.40
30520;DHT22;17300;50.374;8.006;2023-04-01T06:13:22;14.40;53.60
30520;DHT22;17300;50.374;8.006;2023-04-01T06:15:55;14.30;53.40
30520;DHT22;17300;50.374;8.006;2023-04-01T06:18:39;14.40;53.50
30520;DHT22;17300;50.374;8.006;2023-04-01T06:21:25;14.40;53.70
30520;DHT22;17300;50.374;8.006;2023-04-01T06:24:00;14.40;53.60
30520;DHT22;17300;50.374;8.006;2023-04-01T06:26:35;14.40;53.70
30520;DHT22;17300;50.374;8.006;2023-04-01T06:29:24;14.40;53.70
30520;DHT22;17300;50.374;8.006;2023-04-01T06:32:08;14.50;54.10
30520;DHT22;17300;50.374;8.006;2023-04-01T06:34:47;14.50;53.90
30520;DHT22;17300;50.374;8.006;2023-04-01T06:37:26;14.50;54.00
30520;DHT22;17300;50.374;8.006;2023-04-01T06:43:06;14.60;54.30
30520;DHT22;17300;50.374;8.006;2023-04-01T06:45:40;14.70;54.30
30520;DHT22;17300;50.374;8.006;2023-04-01T06:48:19;14.70;54.30
30520;DHT22;17300;50.374;8.006;2023-04-01T06:50:55;14.80;54.40
30520;DHT22;17300;50.374;8.006;2023-04-01T06:53:27;14.80;54.40
30520;DHT22;17300;50.374;8.006;2023-04-01T06:55:59;14.90;54.50
30520;DHT22;17300;50.374;8.006;2023-04-01T06:58:33;15.00;54.70
30520;DHT22;17300;50.374;8.006;2023-04-01T07:01:04;15.00;54.70
30520;DHT22;17300;50.374;8.006;2023-04-01T07:03:34;15.00;54.60
30520;DHT22;17300;50.374;8.006;2023-04-01T07:06:04;15.20;54.80
30520;DHT22;17300;50.374;8.006;2023-04-01T07:08:34;15.20;54.80
30520;DHT22;17300;50.374;8.006;2023-04-01T07:11:04;15.30;54.80
30520;DHT22;17300;50.374;8.006;2023-04-01T07:13:36;15.30;54.70
30520;DHT22;17300;50.374;8.006;2023-04-01T07:16:11;15.40;54.80
30520;DHT22;17300;50.374;8.006;2023-04-01T07:18:42;15.40;54.80
30520;DHT22;17300;50.374;8.006;2023-04-01T07:21:19;15.50;54.70
30520;DHT22;17300;50.374;8.006;2023-04-01T07:23:49;15.50;54.60
30520;DHT22;17300;50.374;8.006;2023-04-01T07:26:18;15.60;54.70
30520;DHT22;17300;50.374;8.006;2023-04-01T07:28:48;15.60;54.80
30520;DHT22;17300;50.374;8.006;2023-04-01T07:31:20;15.70;55.00
30520;DHT22;17300;50.374;8.006;2023-04-01T07:34:01;15.70;55.10
30520;DHT22;17300;50.374;8.006;2023-04-01T07:36:35;15.80;55.20
30520;DHT22;17300;50.374;8.006;2023-04-01T07:39:13;16.00;55.20
30520;DHT22;17300;50.374;8.006;2023-04-01T07:41:51;16.10;54.90
30520;DHT22;17300;50.374;8.006;2023-04-01T07:44:25;16.20;54.80
30520;DHT22;17300;50.374;8.006;2023-04-01T07:47:02;16.30;54.70
30520;DHT22;17300;50.374;8.006;2023-04-01T07:49:37;16.40;54.50
30520;DHT22;17300;50.374;8.006;2023-04-01T07:52:13;16.50;54.30
30520;DHT22;17300;50.374;8.006;2023-04-01T07:54:48;16.50;54.00
30520;DHT22;17300;50.374;8.006;2023-04-01T07:57:20;16.50;53.80
30520;DHT22;17300;50.374;8.006;2023-04-01T07:59:58;16.50;53.80
30520;DHT22;17300;50.374;8.006;2023-04-01T08:02:35;16.50;53.80
30520;DHT22;17300;50.374;8.006;2023-04-01T08:05:17;16.60;53.80
30520;DHT22;17300;50.374;8.006;2023-04-01T08:07:50;16.60;53.80
30520;DHT22;17300;50.374;8.006;2023-04-01T08:10:25;16.60;53.90
30520;DHT22;17300;50.374;8.006;2023-04-01T08:13:00;16.60;54.40
30520;DHT22;17300;50.374;8.006;2023-04-01T08:15:35;16.60;53.50
30520;DHT22;17300;50.374;8.006;2023-04-01T08:18:09;16.70;53.60
30520;DHT22;17300;50.374;8.006;2023-04-01T08:20:41;16.60;53.50
30520;DHT22;17300;50.374;8.006;2023-04-01T08:23:13;16.70;53.60
30520;DHT22;17300;50.374;8.006;2023-04-01T08:25:44;16.60;53.70
30520;DHT22;17300;50.374;8.006;2023-04-01T08:28:17;16.60;53.80
30520;DHT22;17300;50.374;8.006;2023-04-01T08:30:52;16.60;53.90
30520;DHT22;17300;50.374;8.006;2023-04-01T08:33:22;16.60;54.20
30520;DHT22;17300;50.374;8.006;2023-04-01T08:36:08;16.70;54.40
30520;DHT22;17300;50.374;8.006;2023-04-01T08:38:40;16.70;54.40
30520;DHT22;17300;50.374;8.006;2023-04-01T08:41:29;16.80;54.40
30520;DHT22;17300;50.374;8.006;2023-04-01T08:44:26;16.90;54.20
30520;DHT22;17300;50.374;8.006;2023-04-01T08:47:19;17.00;54.10
30520;DHT22;17300;50.374;8.006;2023-04-01T08:52:44;17.00;53.90
30520;DHT22;17300;50.374;8.006;2023-04-01T08:55:31;17.10;54.10
30520;DHT22;17300;50.374;8.006;2023-04-01T08:58:37;17.20;54.40
30520;DHT22;17300;50.374;8.006;2023-04-01T09:01:16;17.30;54.60
30520;DHT22;17300;50.374;8.006;2023-04-01T09:04:14;17.40;54.80
30520;DHT22;17300;50.374;8.006;2023-04-01T09:06:52;17.60;54.90
30520;DHT22;17300;50.374;8.006;2023-04-01T09:10:05;17.80;55.10
30520;DHT22;17300;50.374;8.006;2023-04-01T09:12:54;18.00;54.60
30520;DHT22;17300;50.374;8.006;2023-04-01T09:15:50;18.20;54.40
30520;DHT22;17300;50.374;8.006;2023-04-01T09:18:30;18.40;54.20
30520;DHT22;17300;50.374;8.006;2023-04-01T09:21:18;18.50;53.80
30520;DHT22;17300;50.374;8.006;2023-04-01T09:26:56;18.50;52.70
30520;DHT22;17300;50.374;8.006;2023-04-01T09:35:38;18.40;52.60
30520;DHT22;17300;50.374;8.006;2023-04-01T09:38:20;18.30;52.80
30520;DHT22;17300;50.374;8.006;2023-04-01T09:40:54;18.40;52.80
30520;DHT22;17300;50.374;8.006;2023-04-01T09:43:47;18.40;52.80
30520;DHT22;17300;50.374;8.006;2023-04-01T09:46:38;18.40;52.60
30520;DHT22;17300;50.374;8.006;2023-04-01T09:49:25;18.40;52.60
30520;DHT22;17300;50.374;8.006;2023-04-01T09:52:12;18.30;52.50
30520;DHT22;17300;50.374;8.006;2023-04-01T09:55:12;18.30;52.60
30520;DHT22;17300;50.374;8.006;2023-04-01T09:58:04;18.30;52.50
30520;DHT22;17300;50.374;8.006;2023-04-01T10:07:54;18.10;52.20
30520;DHT22;17300;50.374;8.006;2023-04-01T10:11:00;18.10;52.50
30520;DHT22;17300;50.374;8.006;2023-04-01T10:14:07;18.10;52.50
30520;DHT22;17300;50.374;8.006;2023-04-01T10:20:01;18.00;52.60
30520;DHT22;17300;50.374;8.006;2023-04-01T10:22:58;18.00;52.60
30520;DHT22;17300;50.374;8.006;2023-04-01T10:31:53;18.00;52.70
30520;DHT22;17300;50.374;8.006;2023-04-01T10:38:46;18.00;52.80
30520;DHT22;17300;50.374;8.006;2023-04-01T11:05:34;18.90;53.50
30520;DHT22;17300;50.374;8.006;2023-04-01T11:12:30;19.30;52.70
30520;DHT22;17300;50.374;8.006;2023-04-01T11:18:57;19.40;52.00
30520;DHT22;17300;50.374;8.006;2023-04-01T11:22:15;19.40;52.00
30520;DHT22;17300;50.374;8.006;2023-04-01T11:42:17;18.70;51.80
30520;DHT22;17300;50.374;8.006;2023-04-01T11:51:55;18.80;52.80
30520;DHT22;17300;50.374;8.006;2023-04-01T11:54:51;18.90;53.30
30520;DHT22;17300;50.374;8.006;2023-04-01T11:57:46;18.90;53.30
30520;DHT22;17300;50.374;8.006;2023-04-01T12:00:45;19.00;53.50
30520;DHT22;17300;50.374;8.006;2023-04-01T12:03:33;19.10;53.30
30520;DHT22;17300;50.374;8.006;2023-04-01T12:06:07;19.30;53.40
30520;DHT22;17300;50.374;8.006;2023-04-01T12:08:42;19.40;53.40
30520;DHT22;17300;50.374;8.006;2023-04-01T12:11:16;19.50;53.80
30520;DHT22;17300;50.374;8.006;2023-04-01T12:13:51;19.70;53.70
30520;DHT22;17300;50.374;8.006;2023-04-01T12:16:41;19.80;53.70
30520;DHT22;17300;50.374;8.006;2023-04-01T12:19:17;20.10;53.10
30520;DHT22;17300;50.374;8.006;2023-04-01T12:21:55;20.20;53.10
30520;DHT22;17300;50.374;8.006;2023-04-01T12:24:49;20.40;52.50
30520;DHT22;17300;50.374;8.006;2023-04-01T12:27:27;20.40;51.90
30520;DHT22;17300;50.374;8.006;2023-04-01T12:32:55;20.40;51.70
30520;DHT22;17300;50.374;8.006;2023-04-01T12:35:26;20.40;51.70
30520;DHT22;17300;50.374;8.006;2023-04-01T12:38:03;20.30;51.70
30520;DHT22;17300;50.374;8.006;2023-04-01T12:40:49;20.30;51.70
30520;DHT22;17300;50.374;8.006;2023-04-01T12:43:44;20.30;51.80
30520;DHT22;17300;50.374;8.006;2023-04-01T12:46:20;20.20;51.70
30520;DHT22;17300;50.374;8.006;2023-04-01T12:51:53;20.10;51.60
30520;DHT22;17300;50.374;8.006;2023-04-01T12:54:51;20.10;51.60
30520;DHT22;17300;50.374;8.006;2023-04-01T13:00:34;20.10;51.90
30520;DHT22;17300;50.374;8.006;2023-04-01T13:06:27;20.10;52.10
30520;DHT22;17300;50.374;8.006;2023-04-01T13:09:02;20.10;52.10
30520;DHT22;17300;50.374;8.006;2023-04-01T13:11:41;20.10;52.40
30520;DHT22;17300;50.374;8.006;2023-04-01T13:14:40;20.10;52.70
30520;DHT22;17300;50.374;8.006;2023-04-01T13:17:16;20.20;52.90
30520;DHT22;17300;50.374;8.006;2023-04-01T13:19:50;20.30;52.90
30520;DHT22;17300;50.374;8.006;2023-04-01T13:22:22;20.30;52.80
30520;DHT22;17300;50.374;8.006;2023-04-01T13:24:55;20.40;52.50
30520;DHT22;17300;50.374;8.006;2023-04-01T13:27:34;20.30;52.50
30520;DHT22;17300;50.374;8.006;2023-04-01T13:30:16;20.30;52.20
30520;DHT22;17300;50.374;8.006;2023-04-01T13:32:50;20.30;52.00
30520;DHT22;17300;50.374;8.006;2023-04-01T13:35:35;20.30;51.80
30520;DHT22;17300;50.374;8.006;2023-04-01T13:38:17;20.20;51.40
30520;DHT22;17300;50.374;8.006;2023-04-01T13:40:52;20.20;51.50
30520;DHT22;17300;50.374;8.006;2023-04-01T13:43:23;20.10;51.90
30520;DHT22;17300;50.374;8.006;2023-04-01T13:46:06;20.10;52.50
30520;DHT22;17300;50.374;8.006;2023-04-01T13:48:49;20.10;52.30
30520;DHT22;17300;50.374;8.006;2023-04-01T13:51:41;20.20;52.60
30520;DHT22;17300;50.374;8.006;2023-04-01T13:54:31;20.30;52.60
30520;DHT22;17300;50.374;8.006;2023-04-01T13:57:16;20.40;52.30
30520;DHT22;17300;50.374;8.006;2023-04-01T14:00:16;20.40;52.20
30520;DHT22;17300;50.374;8.006;2023-04-01T14:03:09;20.50;52.00
30520;DHT22;17300;50.374;8.006;2023-04-01T14:05:53;20.50;52.00
30520;DHT22;17300;50.374;8.006;2023-04-01T14:08:40;20.50;51.90
30520;DHT22;17300;50.374;8.006;2023-04-01T14:11:15;20.60;52.30
30520;DHT22;17300;50.374;8.006;2023-04-01T14:13:56;20.60;52.00
30520;DHT22;17300;50.374;8.006;2023-04-01T14:16:40;20.70;51.90
30520;DHT22;17300;50.374;8.006;2023-04-01T14:19:21;20.80;51.70
30520;DHT22;17300;50.374;8.006;2023-04-01T14:21:58;20.80;51.20
30520;DHT22;17300;50.374;8.006;2023-04-01T14:24:39;20.90;51.10
30520;DHT22;17300;50.374;8.006;2023-04-01T14:27:26;20.90;50.70
30520;DHT22;17300;50.374;8.006;2023-04-01T14:30:04;20.90;50.30
30520;DHT22;17300;50.374;8.006;2023-04-01T14:32:39;20.90;50.60
30520;DHT22;17300;50.374;8.006;2023-04-01T14:35:22;20.80;50.20
30520;DHT22;17300;50.374;8.006;2023-04-01T14:38:02;20.70;50.00
30520;DHT22;17300;50.374;8.006;2023-04-01T14:40:48;20.60;49.80
30520;DHT22;17300;50.374;8.006;2023-04-01T14:43:38;20.50;49.80
30520;DHT22;17300;50.374;8.006;2023-04-01T14:46:17;20.30;50.40
30520;DHT22;17300;50.374;8.006;2023-04-01T14:48:53;20.20;49.90
30520;DHT22;17300;50.374;8.006;2023-04-01T14:51:28;20.00;50.00
30520;DHT22;17300;50.374;8.006;2023-04-01T14:54:03;19.90;50.00
30520;DHT22;17300;50.374;8.006;2023-04-01T14:56:43;19.70;50.40
30520;DHT22;17300;50.374;8.006;2023-04-01T14:59:14;19.60;51.10
30520;DHT22;17300;50.374;8.006;2023-04-01T15:01:47;19.40;51.10
30520;DHT22;17300;50.374;8.006;2023-04-01T15:04:37;19.40;51.40
30520;DHT22;17300;50.374;8.006;2023-04-01T15:07:40;19.30;51.90
30520;DHT22;17300;50.374;8.006;2023-04-01T15:10:23;19.30;52.00
30520;DHT22;17300;50.374;8.006;2023-04-01T15:13:04;19.30;52.00
30520;DHT22;17300;50.374;8.006;2023-04-01T15:15:39;19.30;52.10
30520;DHT22;17300;50.374;8.006;2023-04-01T15:18:08;19.30;52.00
30520;DHT22;17300;50.374;8.006;2023-04-01T15:20:55;19.20;51.70
30520;DHT22;17300;50.374;8.006;2023-04-01T15:23:34;19.10;51.60
30520;DHT22;17300;50.374;8.006;2023-04-01T15:26:20;19.00;51.40
30520;DHT22;17300;50.374;8.006;2023-04-01T15:29:01;18.90;51.40
30520;DHT22;17300;50.374;8.006;2023-04-01T15:31:38;18.80;51.50
30520;DHT22;17300;50.374;8.006;2023-04-01T15:34:19;18.70;51.70
30520;DHT22;17300;50.374;8.006;2023-04-01T15:36:53;18.60;52.00
30520;DHT22;17300;50.374;8.006;2023-04-01T15:39:27;18.50;51.90
30520;DHT22;17300;50.374;8.006;2023-04-01T15:42:12;18.40;52.10
30520;DHT22;17300;50.374;8.006;2023-04-01T15:44:55;18.30;52.50
30520;DHT22;17300;50.374;8.006;2023-04-01T15:47:35;18.30;52.60
30520;DHT22;17300;50.374;8.006;2023-04-01T15:50:28;18.20;52.80
30520;DHT22;17300;50.374;8.006;2023-04-01T15:53:07;18.20;53.10
30520;DHT22;17300;50.374;8.006;2023-04-01T15:55:39;18.10;52.90
30520;DHT22;17300;50.374;8.006;2023-04-01T15:58:24;18.10;53.20
30520;DHT22;17300;50.374;8.006;2023-04-01T16:01:04;18.10;53.70
30520;DHT22;17300;50.374;8.006;2023-04-01T16:03:38;18.00;53.60
30520;DHT22;17300;50.374;8.006;2023-04-01T16:06:17;18.10;53.80
30520;DHT22;17300;50.374;8.006;2023-04-01T16:09:02;18.10;54.00
30520;DHT22;17300;50.374;8.006;2023-04-01T16:11:43;18.10;54.40
30520;DHT22;17300;50.374;8.006;2023-04-01T16:14:21;18.10;54.10
30520;DHT22;17300;50.374;8.006;2023-04-01T16:17:03;18.20;54.20
30520;DHT22;17300;50.374;8.006;2023-04-01T16:19:37;18.10;54.20
30520;DHT22;17300;50.374;8.006;2023-04-01T16:22:09;18.20;54.10
30520;DHT22;17300;50.374;8.006;2023-04-01T16:24:44;18.20;54.00
30520;DHT22;17300;50.374;8.006;2023-04-01T16:27:16;18.20;54.00
30520;DHT22;17300;50.374;8.006;2023-04-01T16:29:48;18.20;54.10
30520;DHT22;17300;50.374;8.006;2023-04-01T16:32:29;18.10;53.90
30520;DHT22;17300;50.374;8.006;2023-04-01T16:35:16;18.10;54.10
30520;DHT22;17300;50.374;8.006;2023-04-01T16:37:49;18.10;54.40
30520;DHT22;17300;50.374;8.006;2023-04-01T16:40:25;18.10;54.30
30520;DHT22;17300;50.374;8.006;2023-04-01T16:43:07;18.00;54.60
30520;DHT22;17300;50.374;8.006;2023-04-01T16:45:41;18.00;54.50
30520;DHT22;17300;50.374;8.006;2023-04-01T16:48:12;18.00;54.10
30520;DHT22;17300;50.374;8.006;2023-04-01T16:50:44;17.90;53.80
30520;DHT22;17300;50.374;8.006;2023-04-01T16:53:17;17.90;53.70
30520;DHT22;17300;50.374;8.006;2023-04-01T16:55:49;17.80;53.80
30520;DHT22;17300;50.374;8.006;2023-04-01T16:58:21;17.70;54.00
30520;DHT22;17300;50.374;8.006;2023-04-01T17:00:51;17.60;54.10
30520;DHT22;17300;50.374;8.006;2023-04-01T17:03:26;17.50;54.20
30520;DHT22;17300;50.374;8.006;2023-04-01T17:06:02;17.50;54.20
30520;DHT22;17300;50.374;8.006;2023-04-01T17:08:50;17.40;54.60
30520;DHT22;17300;50.374;8.006;2023-04-01T17:11:24;17.40;54.80
30520;DHT22;17300;50.374;8.006;2023-04-01T17:14:00;17.30;54.40
30520;DHT22;17300;50.374;8.006;2023-04-01T17:17:01;17.20;54.60
30520;DHT22;17300;50.374;8.006;2023-04-01T17:19:45;17.20;55.00
30520;DHT22;17300;50.374;8.006;2023-04-01T17:22:25;17.20;54.90
30520;DHT22;17300;50.374;8.006;2023-04-01T17:25:07;17.10;54.90
30520;DHT22;17300;50.374;8.006;2023-04-01T17:27:42;17.10;55.10
30520;DHT22;17300;50.374;8.006;2023-04-01T17:30:28;17.10;55.10
30520;DHT22;17300;50.374;8.006;2023-04-01T17:33:20;17.00;55.30
30520;DHT22;17300;50.374;8.006;2023-04-01T17:35:57;16.90;55.10
30520;DHT22;17300;50.374;8.006;2023-04-01T17:41:30;16.90;55.10
30520;DHT22;17300;50.374;8.006;2023-04-01T17:44:09;16.80;54.80
30520;DHT22;17300;50.374;8.006;2023-04-01T17:46:48;16.80;54.90
30520;DHT22;17300;50.374;8.006;2023-04-01T17:49:24;16.70;54.80
30520;DHT22;17300;50.374;8.006;2023-04-01T17:52:00;16.60;54.80
30520;DHT22;17300;50.374;8.006;2023-04-01T17:54:35;16.60;54.90
30520;DHT22;17300;50.374;8.006;2023-04-01T17:57:27;16.50;54.90
30520;DHT22;17300;50.374;8.006;2023-04-01T18:00:00;16.50;55.50
30520;DHT22;17300;50.374;8.006;2023-04-01T18:02:36;16.40;55.20
30520;DHT22;17300;50.374;8.006;2023-04-01T18:05:21;16.40;55.60
30520;DHT22;17300;50.374;8.006;2023-04-01T18:08:15;16.30;55.90
30520;DHT22;17300;50.374;8.006;2023-04-01T18:10:57;16.30;56.10